sensor_id;sensor_type;location;lat;lon;timestamp;P1;durP1;ratioP1;P2;durP2;ratioP2
30472;SDS011;17263;48.160;11.452;2023-12-20T00:01:56;2.80;;;2.17;;
30472;SDS011;17263;48.160;11.452;2023-12-20T00:04:22;3.83;;;3.03;;
30472;SDS011;17263;48.160;11.452;2023-12-20T00:06:48;3.10;;;2.60;;
30472;SDS011;17263;48.160;11.452;2023-12-20T00:09:14;4.83;;;2.70;;
30472;SDS011;17263;48.160;11.452;2023-12-20T00:11:40;11.63;;;3.40;;
30472;SDS011;17263;48.160;11.452;2023-12-20T00:14:07;3.73;;;2.60;;
30472;SDS011;17263;48.160;11.452;2023-12-20T00:16:34;2.63;;;2.43;;
30472;SDS011;17263;48.160;11.452;2023-12-20T00:19:00;3.27;;;2.70;;
30472;SDS011;17263;48.160;11.452;2023-12-20T00:21:26;2.80;;;2.20;;
30472;SDS011;17263;48.160;11.452;2023-12-20T00:23:52;3.50;;;2.60;;
30472;SDS011;17263;48.160;11.452;2023-12-20T00:26:18;2.50;;;2.20;;
30472;SDS011;17263;48.160;11.452;2023-12-20T00:28:44;3.03;;;2.50;;
30472;SDS011;17263;48.160;11.452;2023-12-20T00:31:10;2.60;;;2.30;;
30472;SDS011;17263;48.160;11.452;2023-12-20T00:33:36;4.33;;;2.30;;
30472;SDS011;17263;48.160;11.452;2023-12-20T00:36:02;2.93;;;2.60;;
30472;SDS011;17263;48.160;11.452;2023-12-20T00:38:28;3.20;;;2.30;;
30472;SDS011;17263;48.160;11.452;2023-12-20T00:40:54;4.13;;;2.47;;
30472;SDS011;17263;48.160;11.452;2023-12-20T00:43:21;3.00;;;2.20;;
30472;SDS011;17263;48.160;11.452;2023-12-20T00:45:47;3.63;;;2.40;;
30472;SDS011;17263;48.160;11.452;2023-12-20T00:48:13;2.23;;;2.03;;
30472;SDS011;17263;48.160;11.452;2023-12-20T00:50:39;2.77;;;2.20;;
30472;SDS011;17263;48.160;11.452;2023-12-20T00:53:05;2.73;;;1.90;;
30472;SDS011;17263;48.160;11.452;2023-12-20T00:55:31;2.53;;;2.20;;
30472;SDS011;17263;48.160;11.452;2023-12-20T00:57:57;2.10;;;1.90;;
30472;SDS011;17263;48.160;11.452;2023-12-20T01:00:24;3.07;;;1.83;;
30472;SDS011;17263;48.160;11.452;2023-12-20T01:02:50;2.73;;;2.30;;
30472;SDS011;17263;48.160;11.452;2023-12-20T01:05:17;2.90;;;2.30;;
30472;SDS011;17263;48.160;11.452;2023-12-20T01:07:44;2.67;;;2.13;;
30472;SDS011;17263;48.160;11.452;2023-12-20T01:10:10;1.67;;;1.57;;
30472;SDS011;17263;48.160;11.452;2023-12-20T01:12:36;2.00;;;1.80;;
30472;SDS011;17263;48.160;11.452;2023-12-20T01:15:02;2.00;;;1.73;;
30472;SDS011;17263;48.160;11.452;2023-12-20T01:17:29;2.10;;;1.90;;
30472;SDS011;17263;48.160;11.452;2023-12-20T01:19:55;2.43;;;2.10;;
30472;SDS011;17263;48.160;11.452;2023-12-20T01:22:21;2.70;;;1.77;;
30472;SDS011;17263;48.160;11.452;2023-12-20T01:24:47;2.67;;;2.00;;
30472;SDS011;17263;48.160;11.452;2023-12-20T01:27:13;2.13;;;1.93;;
30472;SDS011;17263;48.160;11.452;2023-12-20T01:29:39;2.47;;;1.80;;
30472;SDS011;17263;48.160;11.452;2023-12-20T01:32:05;2.87;;;1.83;;
30472;SDS011;17263;48.160;11.452;2023-12-20T01:34:31;2.83;;;2.03;;
30472;SDS011;17263;48.160;11.452;2023-12-20T01:36:57;2.00;;;1.80;;
30472;SDS011;17263;48.160;11.452;2023-12-20T01:39:23;2.53;;;2.17;;
30472;SDS011;17263;48.160;11.452;2023-12-20T01:41:49;3.00;;;1.77;;
30472;SDS011;17263;48.160;11.452;2023-12-20T01:44:15;2.23;;;1.80;;
30472;SDS011;17263;48.160;11.452;2023-12-20T01:46:41;1.90;;;1.60;;
30472;SDS011;17263;48.160;11.452;2023-12-20T01:49:07;2.10;;;1.90;;
30472;SDS011;17263;48.160;11.452;2023-12-20T01:51:33;2.33;;;1.90;;
30472;SDS011;17263;48.160;11.452;2023-12-20T01:54:00;2.20;;;1.80;;
30472;SDS011;17263;48.160;11.452;2023-12-20T01:56:26;2.03;;;1.83;;
30472;SDS011;17263;48.160;11.452;2023-12-20T01:58:54;2.40;;;1.83;;
30472;SDS011;17263;48.160;11.452;2023-12-20T02:01:21;3.20;;;1.70;;
30472;SDS011;17263;48.160;11.452;2023-12-20T02:03:48;1.80;;;1.70;;
30472;SDS011;17263;48.160;11.452;2023-12-20T02:06:16;1.63;;;1.40;;
30472;SDS011;17263;48.160;11.452;2023-12-20T02:08:44;1.87;;;1.40;;
30472;SDS011;17263;48.160;11.452;2023-12-20T02:11:10;1.73;;;1.50;;
30472;SDS011;17263;48.160;11.452;2023-12-20T02:13:36;2.23;;;1.50;;
30472;SDS011;17263;48.160;11.452;2023-12-20T02:16:02;1.97;;;1.40;;
30472;SDS011;17263;48.160;11.452;2023-12-20T02:18:28;2.00;;;1.53;;
30472;SDS011;17263;48.160;11.452;2023-12-20T02:20:54;1.83;;;1.37;;
30472;SDS011;17263;48.160;11.452;2023-12-20T02:23:21;1.37;;;1.27;;
30472;SDS011;17263;48.160;11.452;2023-12-20T02:25:47;1.50;;;1.40;;
30472;SDS011;17263;48.160;11.452;2023-12-20T02:28:13;1.30;;;1.20;;
30472;SDS011;17263;48.160;11.452;2023-12-20T02:30:40;1.63;;;1.30;;
30472;SDS011;17263;48.160;11.452;2023-12-20T02:33:10;1.23;;;1.10;;
30472;SDS011;17263;48.160;11.452;2023-12-20T02:35:38;1.10;;;1.00;;
30472;SDS011;17263;48.160;11.452;2023-12-20T02:38:05;1.43;;;1.10;;
30472;SDS011;17263;48.160;11.452;2023-12-20T02:40:31;1.10;;;1.00;;
30472;SDS011;17263;48.160;11.452;2023-12-20T02:42:57;1.27;;;1.03;;
30472;SDS011;17263;48.160;11.452;2023-12-20T02:45:23;1.10;;;1.00;;
30472;SDS011;17263;48.160;11.452;2023-12-20T02:47:49;1.23;;;1.00;;
30472;SDS011;17263;48.160;11.452;2023-12-20T02:50:15;0.83;;;0.83;;
30472;SDS011;17263;48.160;11.452;2023-12-20T02:52:44;2.63;;;1.03;;
30472;SDS011;17263;48.160;11.452;2023-12-20T02:55:10;1.13;;;0.90;;
30472;SDS011;17263;48.160;11.452;2023-12-20T02:57:36;2.03;;;0.80;;
30472;SDS011;17263;48.160;11.452;2023-12-20T03:00:10;1.07;;;0.97;;
30472;SDS011;17263;48.160;11.452;2023-12-20T03:02:36;1.33;;;1.00;;
30472;SDS011;17263;48.160;11.452;2023-12-20T03:05:02;1.07;;;0.97;;
30472;SDS011;17263;48.160;11.452;2023-12-20T03:07:29;1.67;;;1.00;;
30472;SDS011;17263;48.160;11.452;2023-12-20T03:09:55;1.40;;;1.00;;
30472;SDS011;17263;48.160;11.452;2023-12-20T03:12:21;1.63;;;1.00;;
30472;SDS011;17263;48.160;11.452;2023-12-20T03:14:47;2.83;;;0.93;;
30472;SDS011;17263;48.160;11.452;2023-12-20T03:17:13;1.00;;;0.90;;
30472;SDS011;17263;48.160;11.452;2023-12-20T03:19:39;1.30;;;1.20;;
30472;SDS011;17263;48.160;11.452;2023-12-20T03:22:05;1.20;;;1.10;;
30472;SDS011;17263;48.160;11.452;2023-12-20T03:24:31;1.33;;;1.10;;
30472;SDS011;17263;48.160;11.452;2023-12-20T03:26:57;1.43;;;0.97;;
30472;SDS011;17263;48.160;11.452;2023-12-20T03:29:23;3.53;;;1.13;;
30472;SDS011;17263;48.160;11.452;2023-12-20T03:31:49;1.20;;;1.07;;
30472;SDS011;17263;48.160;11.452;2023-12-20T03:34:15;0.93;;;0.87;;
30472;SDS011;17263;48.160;11.452;2023-12-20T03:36:41;1.13;;;1.03;;
30472;SDS011;17263;48.160;11.452;2023-12-20T03:39:07;1.10;;;1.00;;
30472;SDS011;17263;48.160;11.452;2023-12-20T03:41:35;1.30;;;0.93;;
30472;SDS011;17263;48.160;11.452;2023-12-20T03:44:01;0.80;;;0.80;;
30472;SDS011;17263;48.160;11.452;2023-12-20T03:46:27;1.23;;;1.00;;
30472;SDS011;17263;48.160;11.452;2023-12-20T03:48:53;1.77;;;1.10;;
30472;SDS011;17263;48.160;11.452;2023-12-20T03:51:19;2.47;;;0.87;;
30472;SDS011;17263;48.160;11.452;2023-12-20T03:53:45;1.83;;;1.10;;
30472;SDS011;17263;48.160;11.452;2023-12-20T03:56:11;1.40;;;1.20;;
30472;SDS011;17263;48.160;11.452;2023-12-20T03:58:37;2.03;;;1.23;;
30472;SDS011;17263;48.160;11.452;2023-12-20T04:01:08;4.60;;;1.20;;
30472;SDS011;17263;48.160;11.452;2023-12-20T04:03:36;1.67;;;1.40;;
30472;SDS011;17263;48.160;11.452;2023-12-20T04:06:02;1.60;;;1.40;;
30472;SDS011;17263;48.160;11.452;2023-12-20T04:08:28;1.37;;;1.00;;
30472;SDS011;17263;48.160;11.452;2023-12-20T04:10:54;1.30;;;1.20;;
30472;SDS011;17263;48.160;11.452;2023-12-20T04:13:20;1.10;;;1.00;;
30472;SDS011;17263;48.160;11.452;2023-12-20T04:15:46;1.73;;;1.40;;
30472;SDS011;17263;48.160;11.452;2023-12-20T04:18:12;1.40;;;1.27;;
30472;SDS011;17263;48.160;11.452;2023-12-20T04:20:38;1.30;;;1.20;;
30472;SDS011;17263;48.160;11.452;2023-12-20T04:23:04;1.13;;;1.03;;
30472;SDS011;17263;48.160;11.452;2023-12-20T04:25:30;1.40;;;1.30;;
30472;SDS011;17263;48.160;11.452;2023-12-20T04:27:56;1.43;;;1.33;;
30472;SDS011;17263;48.160;11.452;2023-12-20T04:30:22;1.70;;;1.40;;
30472;SDS011;17263;48.160;11.452;2023-12-20T04:32:48;1.63;;;1.50;;
30472;SDS011;17263;48.160;11.452;2023-12-20T04:35:14;1.63;;;1.53;;
30472;SDS011;17263;48.160;11.452;2023-12-20T04:37:40;1.90;;;1.50;;
30472;SDS011;17263;48.160;11.452;2023-12-20T04:40:06;1.87;;;1.60;;
30472;SDS011;17263;48.160;11.452;2023-12-20T04:42:33;1.60;;;1.40;;
30472;SDS011;17263;48.160;11.452;2023-12-20T04:44:59;2.00;;;1.70;;
30472;SDS011;17263;48.160;11.452;2023-12-20T04:47:25;2.43;;;1.60;;
30472;SDS011;17263;48.160;11.452;2023-12-20T04:49:51;1.83;;;1.70;;
30472;SDS011;17263;48.160;11.452;2023-12-20T04:52:17;2.20;;;1.90;;
30472;SDS011;17263;48.160;11.452;2023-12-20T04:54:43;2.60;;;1.93;;
30472;SDS011;17263;48.160;11.452;2023-12-20T04:57:09;2.40;;;2.20;;
30472;SDS011;17263;48.160;11.452;2023-12-20T04:59:35;2.43;;;2.23;;
30472;SDS011;17263;48.160;11.452;2023-12-20T05:02:01;2.63;;;2.40;;
30472;SDS011;17263;48.160;11.452;2023-12-20T05:04:27;2.07;;;1.87;;
30472;SDS011;17263;48.160;11.452;2023-12-20T05:06:53;2.50;;;2.30;;
30472;SDS011;17263;48.160;11.452;2023-12-20T05:09:19;2.67;;;2.37;;
30472;SDS011;17263;48.160;11.452;2023-12-20T05:11:45;3.53;;;2.83;;
30472;SDS011;17263;48.160;11.452;2023-12-20T05:14:11;2.90;;;2.50;;
30472;SDS011;17263;48.160;11.452;2023-12-20T05:16:37;2.93;;;2.63;;
30472;SDS011;17263;48.160;11.452;2023-12-20T05:19:03;3.40;;;2.60;;
30472;SDS011;17263;48.160;11.452;2023-12-20T05:21:32;2.70;;;2.50;;
30472;SDS011;17263;48.160;11.452;2023-12-20T05:23:59;3.30;;;2.53;;
30472;SDS011;17263;48.160;11.452;2023-12-20T05:26:25;3.53;;;2.67;;
30472;SDS011;17263;48.160;11.452;2023-12-20T05:28:51;3.40;;;2.67;;
30472;SDS011;17263;48.160;11.452;2023-12-20T05:31:18;2.97;;;2.73;;
30472;SDS011;17263;48.160;11.452;2023-12-20T05:33:44;3.33;;;2.77;;
30472;SDS011;17263;48.160;11.452;2023-12-20T05:36:10;2.97;;;2.67;;
30472;SDS011;17263;48.160;11.452;2023-12-20T05:38:39;3.93;;;2.60;;
30472;SDS011;17263;48.160;11.452;2023-12-20T05:41:05;4.10;;;2.50;;
30472;SDS011;17263;48.160;11.452;2023-12-20T05:43:31;3.33;;;2.70;;
30472;SDS011;17263;48.160;11.452;2023-12-20T05:45:57;3.10;;;2.80;;
30472;SDS011;17263;48.160;11.452;2023-12-20T05:48:23;2.93;;;2.50;;
30472;SDS011;17263;48.160;11.452;2023-12-20T05:50:49;2.60;;;2.40;;
30472;SDS011;17263;48.160;11.452;2023-12-20T05:53:15;2.30;;;2.10;;
30472;SDS011;17263;48.160;11.452;2023-12-20T05:55:41;2.40;;;2.20;;
30472;SDS011;17263;48.160;11.452;2023-12-20T05:58:07;2.30;;;2.10;;
30472;SDS011;17263;48.160;11.452;2023-12-20T06:00:33;3.20;;;2.47;;
30472;SDS011;17263;48.160;11.452;2023-12-20T06:02:59;2.97;;;2.50;;
30472;SDS011;17263;48.160;11.452;2023-12-20T06:05:25;3.07;;;2.30;;
30472;SDS011;17263;48.160;11.452;2023-12-20T06:07:51;3.60;;;2.30;;
30472;SDS011;17263;48.160;11.452;2023-12-20T06:10:17;2.87;;;2.67;;
30472;SDS011;17263;48.160;11.452;2023-12-20T06:12:43;2.83;;;2.33;;
30472;SDS011;17263;48.160;11.452;2023-12-20T06:15:10;2.70;;;2.50;;
30472;SDS011;17263;48.160;11.452;2023-12-20T06:17:36;3.23;;;2.90;;
30472;SDS011;17263;48.160;11.452;2023-12-20T06:20:03;3.97;;;2.63;;
30472;SDS011;17263;48.160;11.452;2023-12-20T06:22:34;3.57;;;3.27;;
30472;SDS011;17263;48.160;11.452;2023-12-20T06:25:00;3.87;;;2.70;;
30472;SDS011;17263;48.160;11.452;2023-12-20T06:27:26;3.03;;;2.60;;
30472;SDS011;17263;48.160;11.452;2023-12-20T06:29:52;3.20;;;2.50;;
30472;SDS011;17263;48.160;11.452;2023-12-20T06:32:18;3.10;;;2.80;;
30472;SDS011;17263;48.160;11.452;2023-12-20T06:34:44;3.00;;;2.70;;
30472;SDS011;17263;48.160;11.452;2023-12-20T06:37:10;3.23;;;2.70;;
30472;SDS011;17263;48.160;11.452;2023-12-20T06:39:36;2.87;;;2.57;;
30472;SDS011;17263;48.160;11.452;2023-12-20T06:42:02;3.23;;;2.93;;
30472;SDS011;17263;48.160;11.452;2023-12-20T06:44:28;3.07;;;2.67;;
30472;SDS011;17263;48.160;11.452;2023-12-20T06:46:54;2.97;;;2.50;;
30472;SDS011;17263;48.160;11.452;2023-12-20T06:49:20;2.60;;;2.40;;
30472;SDS011;17263;48.160;11.452;2023-12-20T06:51:46;2.53;;;2.33;;
30472;SDS011;17263;48.160;11.452;2023-12-20T06:54:12;2.93;;;2.23;;
30472;SDS011;17263;48.160;11.452;2023-12-20T06:56:38;3.83;;;2.73;;
30472;SDS011;17263;48.160;11.452;2023-12-20T06:59:04;2.83;;;2.40;;
30472;SDS011;17263;48.160;11.452;2023-12-20T07:01:31;2.30;;;2.10;;
30472;SDS011;17263;48.160;11.452;2023-12-20T07:03:57;2.57;;;2.30;;
30472;SDS011;17263;48.160;11.452;2023-12-20T07:06:23;3.63;;;2.23;;
30472;SDS011;17263;48.160;11.452;2023-12-20T07:08:51;2.70;;;1.83;;
30472;SDS011;17263;48.160;11.452;2023-12-20T07:11:18;2.00;;;1.80;;
30472;SDS011;17263;48.160;11.452;2023-12-20T07:13:44;2.20;;;2.00;;
30472;SDS011;17263;48.160;11.452;2023-12-20T07:16:10;2.07;;;1.77;;
30472;SDS011;17263;48.160;11.452;2023-12-20T07:18:36;2.50;;;1.80;;
30472;SDS011;17263;48.160;11.452;2023-12-20T07:21:02;1.67;;;1.50;;
30472;SDS011;17263;48.160;11.452;2023-12-20T07:23:28;1.90;;;1.60;;
30472;SDS011;17263;48.160;11.452;2023-12-20T07:25:54;1.70;;;1.60;;
30472;SDS011;17263;48.160;11.452;2023-12-20T07:28:20;1.60;;;1.50;;
30472;SDS011;17263;48.160;11.452;2023-12-20T07:30:46;1.87;;;1.70;;
30472;SDS011;17263;48.160;11.452;2023-12-20T07:33:12;1.30;;;1.20;;
30472;SDS011;17263;48.160;11.452;2023-12-20T07:35:39;1.20;;;1.10;;
30472;SDS011;17263;48.160;11.452;2023-12-20T07:38:05;1.60;;;1.30;;
30472;SDS011;17263;48.160;11.452;2023-12-20T07:40:31;1.50;;;1.33;;
30472;SDS011;17263;48.160;11.452;2023-12-20T07:42:57;1.43;;;1.33;;
30472;SDS011;17263;48.160;11.452;2023-12-20T07:45:24;1.60;;;1.10;;
30472;SDS011;17263;48.160;11.452;2023-12-20T07:47:50;1.30;;;1.20;;
30472;SDS011;17263;48.160;11.452;2023-12-20T07:50:16;1.23;;;1.13;;
30472;SDS011;17263;48.160;11.452;2023-12-20T07:52:42;1.73;;;1.40;;
30472;SDS011;17263;48.160;11.452;2023-12-20T07:55:10;1.30;;;1.20;;
30472;SDS011;17263;48.160;11.452;2023-12-20T07:57:36;2.37;;;1.40;;
30472;SDS011;17263;48.160;11.452;2023-12-20T08:00:03;1.17;;;1.03;;
30472;SDS011;17263;48.160;11.452;2023-12-20T08:02:29;2.23;;;1.37;;
30472;SDS011;17263;48.160;11.452;2023-12-20T08:04:55;1.23;;;1.13;;
30472;SDS011;17263;48.160;11.452;2023-12-20T08:07:21;1.10;;;1.00;;
30472;SDS011;17263;48.160;11.452;2023-12-20T08:09:47;1.10;;;1.00;;
30472;SDS011;17263;48.160;11.452;2023-12-20T08:12:13;1.20;;;1.10;;
30472;SDS011;17263;48.160;11.452;2023-12-20T08:14:41;1.10;;;1.10;;
30472;SDS011;17263;48.160;11.452;2023-12-20T08:17:07;1.00;;;0.90;;
30472;SDS011;17263;48.160;11.452;2023-12-20T08:19:33;1.13;;;0.90;;
30472;SDS011;17263;48.160;11.452;2023-12-20T08:21:59;1.43;;;0.90;;
30472;SDS011;17263;48.160;11.452;2023-12-20T08:24:25;1.07;;;0.97;;
30472;SDS011;17263;48.160;11.452;2023-12-20T08:26:51;1.30;;;1.20;;
30472;SDS011;17263;48.160;11.452;2023-12-20T08:29:18;1.20;;;1.10;;
30472;SDS011;17263;48.160;11.452;2023-12-20T08:31:44;1.33;;;1.07;;
30472;SDS011;17263;48.160;11.452;2023-12-20T08:34:10;1.20;;;1.00;;
30472;SDS011;17263;48.160;11.452;2023-12-20T08:36:37;1.23;;;1.00;;
30472;SDS011;17263;48.160;11.452;2023-12-20T08:39:03;1.27;;;1.07;;
30472;SDS011;17263;48.160;11.452;2023-12-20T08:41:32;1.23;;;1.13;;
30472;SDS011;17263;48.160;11.452;2023-12-20T08:44:00;1.23;;;1.00;;
30472;SDS011;17263;48.160;11.452;2023-12-20T08:46:26;1.20;;;1.00;;
30472;SDS011;17263;48.160;11.452;2023-12-20T08:48:52;1.33;;;1.03;;
30472;SDS011;17263;48.160;11.452;2023-12-20T08:51:18;1.27;;;1.17;;
30472;SDS011;17263;48.160;11.452;2023-12-20T08:53:44;1.30;;;1.10;;
30472;SDS011;17263;48.160;11.452;2023-12-20T08:56:11;2.73;;;1.17;;
30472;SDS011;17263;48.160;11.452;2023-12-20T08:58:37;1.97;;;1.00;;
30472;SDS011;17263;48.160;11.452;2023-12-20T09:01:03;2.07;;;1.20;;
30472;SDS011;17263;48.160;11.452;2023-12-20T09:03:29;1.20;;;1.00;;
30472;SDS011;17263;48.160;11.452;2023-12-20T09:05:55;1.30;;;1.20;;
30472;SDS011;17263;48.160;11.452;2023-12-20T09:08:22;1.57;;;1.47;;
30472;SDS011;17263;48.160;11.452;2023-12-20T09:10:48;1.43;;;1.30;;
30472;SDS011;17263;48.160;11.452;2023-12-20T09:13:14;3.23;;;1.17;;
30472;SDS011;17263;48.160;11.452;2023-12-20T09:15:40;1.60;;;1.50;;
30472;SDS011;17263;48.160;11.452;2023-12-20T09:18:06;1.37;;;1.27;;
30472;SDS011;17263;48.160;11.452;2023-12-20T09:20:32;1.37;;;1.07;;
30472;SDS011;17263;48.160;11.452;2023-12-20T09:22:58;1.20;;;1.10;;
30472;SDS011;17263;48.160;11.452;2023-12-20T09:25:24;1.20;;;1.07;;
30472;SDS011;17263;48.160;11.452;2023-12-20T09:27:51;1.30;;;0.90;;
30472;SDS011;17263;48.160;11.452;2023-12-20T09:30:18;1.43;;;1.10;;
30472;SDS011;17263;48.160;11.452;2023-12-20T09:32:45;1.10;;;1.00;;
30472;SDS011;17263;48.160;11.452;2023-12-20T09:35:11;2.13;;;1.17;;
30472;SDS011;17263;48.160;11.452;2023-12-20T09:37:37;1.13;;;1.00;;
30472;SDS011;17263;48.160;11.452;2023-12-20T09:40:03;2.53;;;1.27;;
30472;SDS011;17263;48.160;11.452;2023-12-20T09:42:50;1.60;;;1.10;;
30472;SDS011;17263;48.160;11.452;2023-12-20T09:45:25;1.57;;;1.27;;
30472;SDS011;17263;48.160;11.452;2023-12-20T09:47:52;1.60;;;1.37;;
30472;SDS011;17263;48.160;11.452;2023-12-20T09:50:20;1.43;;;1.20;;
30472;SDS011;17263;48.160;11.452;2023-12-20T09:52:50;1.33;;;1.20;;
30472;SDS011;17263;48.160;11.452;2023-12-20T09:55:18;1.40;;;1.23;;
30472;SDS011;17263;48.160;11.452;2023-12-20T09:57:48;2.63;;;1.33;;
30472;SDS011;17263;48.160;11.452;2023-12-20T10:00:15;1.50;;;1.40;;
30472;SDS011;17263;48.160;11.452;2023-12-20T10:02:49;1.10;;;1.00;;
30472;SDS011;17263;48.160;11.452;2023-12-20T10:05:19;1.77;;;1.30;;
30472;SDS011;17263;48.160;11.452;2023-12-20T10:07:59;1.43;;;1.33;;
30472;SDS011;17263;48.160;11.452;2023-12-20T10:10:26;2.10;;;1.30;;
30472;SDS011;17263;48.160;11.452;2023-12-20T10:13:02;1.97;;;1.47;;
30472;SDS011;17263;48.160;11.452;2023-12-20T10:15:29;2.67;;;1.40;;
30472;SDS011;17263;48.160;11.452;2023-12-20T10:17:56;1.70;;;1.30;;
30472;SDS011;17263;48.160;11.452;2023-12-20T10:20:22;1.60;;;1.43;;
30472;SDS011;17263;48.160;11.452;2023-12-20T10:22:49;2.23;;;1.70;;
30472;SDS011;17263;48.160;11.452;2023-12-20T10:25:15;1.27;;;1.17;;
30472;SDS011;17263;48.160;11.452;2023-12-20T10:27:41;1.90;;;1.40;;
30472;SDS011;17263;48.160;11.452;2023-12-20T10:30:07;2.10;;;1.40;;
30472;SDS011;17263;48.160;11.452;2023-12-20T10:32:34;1.93;;;1.77;;
30472;SDS011;17263;48.160;11.452;2023-12-20T10:35:00;1.50;;;1.40;;
30472;SDS011;17263;48.160;11.452;2023-12-20T10:37:26;3.40;;;1.40;;
30472;SDS011;17263;48.160;11.452;2023-12-20T10:39:53;1.40;;;1.30;;
30472;SDS011;17263;48.160;11.452;2023-12-20T10:42:24;1.30;;;1.20;;
30472;SDS011;17263;48.160;11.452;2023-12-20T10:44:52;1.93;;;1.60;;
30472;SDS011;17263;48.160;11.452;2023-12-20T10:47:19;2.33;;;1.47;;
30472;SDS011;17263;48.160;11.452;2023-12-20T10:49:46;1.43;;;1.33;;
30472;SDS011;17263;48.160;11.452;2023-12-20T10:52:13;1.50;;;1.40;;
30472;SDS011;17263;48.160;11.452;2023-12-20T10:54:39;1.40;;;1.30;;
30472;SDS011;17263;48.160;11.452;2023-12-20T10:57:06;1.53;;;1.43;;
30472;SDS011;17263;48.160;11.452;2023-12-20T10:59:33;1.67;;;1.57;;
30472;SDS011;17263;48.160;11.452;2023-12-20T11:02:02;1.63;;;1.50;;
30472;SDS011;17263;48.160;11.452;2023-12-20T11:07:06;2.13;;;1.70;;
30472;SDS011;17263;48.160;11.452;2023-12-20T11:09:49;2.90;;;1.50;;
30472;SDS011;17263;48.160;11.452;2023-12-20T11:12:28;1.40;;;1.30;;
30472;SDS011;17263;48.160;11.452;2023-12-20T11:14:59;1.77;;;1.60;;
30472;SDS011;17263;48.160;11.452;2023-12-20T11:17:29;1.90;;;1.67;;
30472;SDS011;17263;48.160;11.452;2023-12-20T11:22:27;2.03;;;1.70;;
30472;SDS011;17263;48.160;11.452;2023-12-20T11:25:06;2.70;;;1.63;;
30472;SDS011;17263;48.160;11.452;2023-12-20T11:27:34;2.03;;;1.83;;
30472;SDS011;17263;48.160;11.452;2023-12-20T11:30:02;2.33;;;1.80;;
30472;SDS011;17263;48.160;11.452;2023-12-20T11:32:33;3.03;;;1.77;;
30472;SDS011;17263;48.160;11.452;2023-12-20T11:35:01;2.70;;;2.50;;
30472;SDS011;17263;48.160;11.452;2023-12-20T11:37:44;2.10;;;1.90;;
30472;SDS011;17263;48.160;11.452;2023-12-20T11:40:16;1.80;;;1.60;;
30472;SDS011;17263;48.160;11.452;2023-12-20T11:42:49;2.80;;;1.70;;
30472;SDS011;17263;48.160;11.452;2023-12-20T11:45:17;1.83;;;1.60;;
30472;SDS011;17263;48.160;11.452;2023-12-20T11:47:48;1.70;;;1.60;;
30472;SDS011;17263;48.160;11.452;2023-12-20T11:50:16;1.70;;;1.60;;
30472;SDS011;17263;48.160;11.452;2023-12-20T11:52:42;1.97;;;1.70;;
30472;SDS011;17263;48.160;11.452;2023-12-20T11:55:08;2.03;;;1.83;;
30472;SDS011;17263;48.160;11.452;2023-12-20T11:57:35;1.83;;;1.73;;
30472;SDS011;17263;48.160;11.452;2023-12-20T12:00:02;2.10;;;1.60;;
30472;SDS011;17263;48.160;11.452;2023-12-20T12:02:28;1.77;;;1.60;;
30472;SDS011;17263;48.160;11.452;2023-12-20T12:04:55;1.80;;;1.53;;
30472;SDS011;17263;48.160;11.452;2023-12-20T12:07:22;1.50;;;1.40;;
30472;SDS011;17263;48.160;11.452;2023-12-20T12:09:48;1.70;;;1.60;;
30472;SDS011;17263;48.160;11.452;2023-12-20T12:12:14;1.53;;;1.40;;
30472;SDS011;17263;48.160;11.452;2023-12-20T12:14:41;2.37;;;1.70;;
30472;SDS011;17263;48.160;11.452;2023-12-20T12:17:10;2.07;;;1.43;;
30472;SDS011;17263;48.160;11.452;2023-12-20T12:19:37;1.80;;;1.60;;
30472;SDS011;17263;48.160;11.452;2023-12-20T12:22:05;1.60;;;1.50;;
30472;SDS011;17263;48.160;11.452;2023-12-20T12:24:36;1.80;;;1.70;;
30472;SDS011;17263;48.160;11.452;2023-12-20T12:27:03;1.90;;;1.70;;
30472;SDS011;17263;48.160;11.452;2023-12-20T12:29:31;1.60;;;1.50;;
30472;SDS011;17263;48.160;11.452;2023-12-20T12:31:57;1.73;;;1.50;;
30472;SDS011;17263;48.160;11.452;2023-12-20T12:34:23;1.30;;;1.20;;
30472;SDS011;17263;48.160;11.452;2023-12-20T12:36:49;1.50;;;1.40;;
30472;SDS011;17263;48.160;11.452;2023-12-20T12:39:16;2.90;;;1.50;;
30472;SDS011;17263;48.160;11.452;2023-12-20T12:41:44;1.57;;;1.47;;
30472;SDS011;17263;48.160;11.452;2023-12-20T12:44:10;1.50;;;1.40;;
30472;SDS011;17263;48.160;11.452;2023-12-20T12:46:36;1.53;;;1.43;;
30472;SDS011;17263;48.160;11.452;2023-12-20T12:49:02;2.73;;;1.50;;
30472;SDS011;17263;48.160;11.452;2023-12-20T12:51:28;2.40;;;1.40;;
30472;SDS011;17263;48.160;11.452;2023-12-20T12:53:54;1.83;;;1.67;;
30472;SDS011;17263;48.160;11.452;2023-12-20T12:56:20;2.33;;;1.87;;
30472;SDS011;17263;48.160;11.452;2023-12-20T12:58:47;1.93;;;1.70;;
30472;SDS011;17263;48.160;11.452;2023-12-20T13:01:13;1.90;;;1.80;;
30472;SDS011;17263;48.160;11.452;2023-12-20T13:03:39;1.70;;;1.60;;
30472;SDS011;17263;48.160;11.452;2023-12-20T13:06:05;1.77;;;1.60;;
30472;SDS011;17263;48.160;11.452;2023-12-20T13:08:34;2.00;;;1.77;;
30472;SDS011;17263;48.160;11.452;2023-12-20T13:11:00;2.77;;;1.57;;
30472;SDS011;17263;48.160;11.452;2023-12-20T13:13:26;2.80;;;1.80;;
30472;SDS011;17263;48.160;11.452;2023-12-20T13:15:52;2.57;;;1.77;;
30472;SDS011;17263;48.160;11.452;2023-12-20T13:18:20;2.47;;;1.80;;
30472;SDS011;17263;48.160;11.452;2023-12-20T13:20:47;2.00;;;1.80;;
30472;SDS011;17263;48.160;11.452;2023-12-20T13:23:13;1.83;;;1.70;;
30472;SDS011;17263;48.160;11.452;2023-12-20T13:25:39;2.03;;;1.70;;
30472;SDS011;17263;48.160;11.452;2023-12-20T13:28:06;2.73;;;1.97;;
30472;SDS011;17263;48.160;11.452;2023-12-20T13:30:34;2.60;;;1.70;;
30472;SDS011;17263;48.160;11.452;2023-12-20T13:33:00;3.27;;;1.80;;
30472;SDS011;17263;48.160;11.452;2023-12-20T13:35:26;2.30;;;1.90;;
30472;SDS011;17263;48.160;11.452;2023-12-20T13:37:52;3.50;;;1.97;;
30472;SDS011;17263;48.160;11.452;2023-12-20T13:40:18;4.13;;;2.23;;
30472;SDS011;17263;48.160;11.452;2023-12-20T13:42:44;2.73;;;2.33;;
30472;SDS011;17263;48.160;11.452;2023-12-20T13:45:10;3.27;;;2.23;;
30472;SDS011;17263;48.160;11.452;2023-12-20T13:47:36;4.70;;;2.30;;
30472;SDS011;17263;48.160;11.452;2023-12-20T13:50:03;3.43;;;2.10;;
30472;SDS011;17263;48.160;11.452;2023-12-20T13:52:29;3.27;;;1.87;;
30472;SDS011;17263;48.160;11.452;2023-12-20T13:54:55;3.40;;;2.10;;
30472;SDS011;17263;48.160;11.452;2023-12-20T13:57:21;3.00;;;2.00;;
30472;SDS011;17263;48.160;11.452;2023-12-20T13:59:47;3.70;;;1.80;;
30472;SDS011;17263;48.160;11.452;2023-12-20T14:02:13;4.23;;;2.13;;
30472;SDS011;17263;48.160;11.452;2023-12-20T14:04:40;5.80;;;2.43;;
30472;SDS011;17263;48.160;11.452;2023-12-20T14:07:06;2.83;;;1.73;;
30472;SDS011;17263;48.160;11.452;2023-12-20T14:09:33;2.73;;;1.90;;
30472;SDS011;17263;48.160;11.452;2023-12-20T14:11:59;3.83;;;2.30;;
30472;SDS011;17263;48.160;11.452;2023-12-20T14:14:25;4.13;;;2.23;;
30472;SDS011;17263;48.160;11.452;2023-12-20T14:16:51;4.43;;;2.50;;
30472;SDS011;17263;48.160;11.452;2023-12-20T14:19:17;4.70;;;2.07;;
30472;SDS011;17263;48.160;11.452;2023-12-20T14:21:43;4.50;;;2.10;;
30472;SDS011;17263;48.160;11.452;2023-12-20T14:24:12;3.57;;;2.10;;
30472;SDS011;17263;48.160;11.452;2023-12-20T14:26:40;5.30;;;1.73;;
30472;SDS011;17263;48.160;11.452;2023-12-20T14:29:07;3.27;;;1.80;;
30472;SDS011;17263;48.160;11.452;2023-12-20T14:31:33;2.80;;;2.00;;
30472;SDS011;17263;48.160;11.452;2023-12-20T14:33:59;15.27;;;9.93;;
30472;SDS011;17263;48.160;11.452;2023-12-20T14:36:29;9.30;;;5.70;;